Wetterdaten: Woche 03.04.17 - 09.04.17 (KW14)
Datum Zeit Temp. A. Feuchte A. Luftdruck Regen Wind Richtung Sonnenschein ET UV Solar Taupunkt Windchill Windben Empfang
03.04.2017 00:00 11,1 C 75 % 1016,9 hPa 0,0 l/m 4,8 km/h (1 Bft) S-SW 0,00 h 0,000 mm 0,0 UV-I 0 W/m 6,8 C 11,1 C 7,0 km/h (2 Bft) 95,81 %
03.04.2017 01:00 10,5 C 77 % 1017,2 hPa 0,0 l/m 5,1 km/h (1 Bft) S-SW 0,00 h 0,025 mm 0,0 UV-I 0 W/m 6,6 C 10,5 C 7,4 km/h (2 Bft) 97,12 %
03.04.2017 02:00 9,7 C 80 % 1017,6 hPa 0,0 l/m 3,3 km/h (1 Bft) S-SW 0,00 h 0,026 mm 0,0 UV-I 0 W/m 6,4 C 9,7 C 5,5 km/h (1 Bft) 96,65 %
03.04.2017 03:00 9,3 C 82 % 1018,1 hPa 0,0 l/m 1,9 km/h (1 Bft) S-SW 0,00 h 0,000 mm 0,0 UV-I 0 W/m 6,4 C 9,3 C 4,1 km/h (1 Bft) 98,65 %
03.04.2017 04:00 9,1 C 83 % 1018,7 hPa 0,0 l/m 3,1 km/h (1 Bft) S-SW 0,00 h 0,000 mm 0,0 UV-I 0 W/m 6,4 C 9,1 C 5,2 km/h (1 Bft) 96,67 %
03.04.2017 05:00 8,6 C 85 % 1019,1 hPa 0,0 l/m 2,3 km/h (1 Bft) S-SW 0,00 h 0,000 mm 0,0 UV-I 0 W/m 6,2 C 8,6 C 4,3 km/h (1 Bft) 95,60 %
03.04.2017 06:00 8,4 C 86 % 1019,5 hPa 0,0 l/m 2,6 km/h (1 Bft) S 0,20 h 0,000 mm 0,0 UV-I 12 W/m 6,2 C 8,4 C 5,2 km/h (1 Bft) 95,82 %
03.04.2017 07:00 9,0 C 85 % 1020,0 hPa 0,0 l/m 3,0 km/h (1 Bft) S 0,37 h 0,000 mm 0,0 UV-I 80 W/m 6,6 C 9,0 C 5,2 km/h (1 Bft) 97,90 %
03.04.2017 08:00 10,8 C 82 % 1020,5 hPa 0,0 l/m 3,1 km/h (1 Bft) S 0,90 h 0,051 mm 0,5 UV-I 197 W/m 7,9 C 10,8 C 5,2 km/h (1 Bft) 96,88 %
03.04.2017 09:00 13,2 C 77 % 1020,8 hPa 0,0 l/m 2,5 km/h (1 Bft) S-SW 0,83 h 0,101 mm 0,7 UV-I 344 W/m 9,3 C 13,2 C 4,4 km/h (1 Bft) 95,75 %
03.04.2017 10:00 13,7 C 76 % 1021,0 hPa 0,0 l/m 2,1 km/h (1 Bft) O-NO 0,00 h 0,178 mm 0,7 UV-I 198 W/m 9,5 C 13,7 C 4,1 km/h (1 Bft) 96,97 %
03.04.2017 11:00 14,2 C 75 % 1021,1 hPa 0,0 l/m 1,3 km/h (1 Bft) N 0,00 h 0,102 mm 1,4 UV-I 303 W/m 9,8 C 14,2 C 3,4 km/h (1 Bft) 97,75 %
03.04.2017 12:00 14,9 C 72 % 1020,9 hPa 0,0 l/m 3,3 km/h (1 Bft) S-SW 0,33 h 0,152 mm 2,0 UV-I 434 W/m 9,8 C 14,9 C 6,1 km/h (2 Bft) 97,14 %
03.04.2017 13:00 15,6 C 69 % 1020,7 hPa 0,0 l/m 5,5 km/h (1 Bft) SW 0,13 h 0,229 mm 1,5 UV-I 348 W/m 9,9 C 15,4 C 8,9 km/h (2 Bft) 96,76 %
03.04.2017 14:00 15,8 C 69 % 1020,2 hPa 0,0 l/m 5,0 km/h (1 Bft) W-SW 0,23 h 0,203 mm 1,4 UV-I 354 W/m 10,2 C 15,7 C 9,3 km/h (2 Bft) 95,17 %
03.04.2017 15:00 16,1 C 68 % 1019,7 hPa 0,0 l/m 3,0 km/h (1 Bft) NW 0,43 h 0,203 mm 1,3 UV-I 334 W/m 10,3 C 16,1 C 6,1 km/h (2 Bft) 98,47 %
03.04.2017 16:00 16,3 C 67 % 1019,2 hPa 0,0 l/m 3,2 km/h (1 Bft) NW 0,73 h 0,178 mm 1,0 UV-I 333 W/m 10,2 C 16,3 C 7,7 km/h (2 Bft) 96,98 %
03.04.2017 17:00 16,1 C 66 % 1019,0 hPa 0,0 l/m 3,2 km/h (1 Bft) N-NO 0,80 h 0,203 mm 0,6 UV-I 222 W/m 9,8 C 16,0 C 7,0 km/h (2 Bft) 97,88 %
03.04.2017 18:00 15,2 C 70 % 1019,0 hPa 0,0 l/m 0,7 km/h (0 Bft) N-NO 0,00 h 0,127 mm 0,0 UV-I 64 W/m 9,8 C 15,2 C 2,3 km/h (1 Bft) 94,82 %
03.04.2017 19:00 14,0 C 76 % 1019,2 hPa 0,0 l/m 1,9 km/h (1 Bft) N-NW 0,00 h 0,051 mm 0,0 UV-I 8 W/m 9,8 C 14,0 C 4,8 km/h (1 Bft) 96,69 %
03.04.2017 20:00 13,0 C 77 % 1019,2 hPa 0,0 l/m 4,7 km/h (1 Bft) N-NO 0,00 h 0,000 mm 0,0 UV-I 0 W/m 9,1 C 12,8 C 8,4 km/h (2 Bft) 95,51 %
03.04.2017 21:00 12,5 C 80 % 1019,6 hPa 0,0 l/m 3,4 km/h (1 Bft) NO 0,00 h 0,025 mm 0,0 UV-I 0 W/m 9,1 C 12,5 C 5,4 km/h (1 Bft) 97,30 %
03.04.2017 22:00 11,0 C 88 % 1020,2 hPa 1,6 l/m 6,5 km/h (2 Bft) W-NW 0,00 h 0,000 mm 0,0 UV-I 0 W/m 9,0 C 10,1 C 13,9 km/h (3 Bft) 94,43 %
03.04.2017 23:00 9,6 C 93 % 1020,9 hPa 6,2 l/m 3,3 km/h (1 Bft) NW 0,00 h 0,000 mm 0,0 UV-I 0 W/m 8,5 C 9,5 C 7,8 km/h (2 Bft) 97,44 %
04.04.2017 00:00 9,2 C 94 % 1020,3 hPa 4,8 l/m 7,0 km/h (2 Bft) W-SW 0,00 h 0,000 mm 0,0 UV-I 0 W/m 8,4 C 8,1 C 11,5 km/h (2 Bft) 97,23 %
04.04.2017 01:00 9,3 C 96 % 1020,3 hPa 0,2 l/m 1,5 km/h (1 Bft) SW 0,00 h 0,000 mm 0,0 UV-I 0 W/m 8,6 C 9,3 C 3,2 km/h (1 Bft) 98,16 %
04.04.2017 02:00 9,2 C 96 % 1019,9 hPa 0,0 l/m 0,1 km/h (0 Bft) N 0,00 h 0,000 mm 0,0 UV-I 0 W/m 8,6 C 9,2 C 0,5 km/h (0 Bft) 95,01 %
04.04.2017 03:00 9,1 C 96 % 1019,6 hPa 0,6 l/m 0,1 km/h (0 Bft) NW 0,00 h 0,000 mm 0,0 UV-I 0 W/m 8,5 C 9,1 C 0,5 km/h (0 Bft) 97,92 %
04.04.2017 04:00 8,6 C 96 % 1019,6 hPa 1,2 l/m 0,7 km/h (0 Bft) NW 0,00 h 0,000 mm 0,0 UV-I 0 W/m 8,1 C 8,6 C 2,0 km/h (1 Bft) 97,22 %
04.04.2017 05:00 8,4 C 97 % 1019,6 hPa 0,4 l/m 0,3 km/h (0 Bft) NW 0,00 h 0,000 mm 0,0 UV-I 0 W/m 8,0 C 8,4 C 1,5 km/h (1 Bft) 97,49 %
04.04.2017 06:00 8,4 C 97 % 1019,7 hPa 0,2 l/m 0,2 km/h (0 Bft) NW 0,00 h 0,000 mm 0,0 UV-I 6 W/m 8,0 C 8,4 C 1,3 km/h (1 Bft) 94,62 %
04.04.2017 07:00 8,3 C 97 % 1020,2 hPa 0,4 l/m 0,2 km/h (0 Bft) N 0,00 h 0,000 mm 0,0 UV-I 12 W/m 7,9 C 8,3 C 0,7 km/h (0 Bft) 96,88 %
04.04.2017 08:00 8,7 C 97 % 1020,4 hPa 0,0 l/m 1,5 km/h (1 Bft) N-NO 0,00 h 0,000 mm 0,0 UV-I 77 W/m 8,2 C 8,7 C 3,3 km/h (1 Bft) 97,46 %
04.04.2017 09:00 8,7 C 96 % 1020,6 hPa 0,0 l/m 0,4 km/h (0 Bft) N-NO 0,00 h 0,025 mm 0,0 UV-I 40 W/m 8,1 C 8,7 C 1,7 km/h (1 Bft) 96,89 %
04.04.2017 10:00 9,2 C 93 % 1020,7 hPa 0,0 l/m 0,5 km/h (0 Bft) NO 0,00 h 0,026 mm 0,7 UV-I 172 W/m 8,2 C 9,2 C 1,4 km/h (1 Bft) 95,21 %
04.04.2017 11:00 10,2 C 90 % 1020,7 hPa 0,0 l/m 1,0 km/h (0 Bft) O 0,00 h 0,076 mm 1,2 UV-I 278 W/m 8,6 C 10,2 C 2,8 km/h (1 Bft) 97,15 %
04.04.2017 12:00 11,2 C 86 % 1020,5 hPa 0,0 l/m 1,3 km/h (1 Bft) W 0,00 h 0,127 mm 1,5 UV-I 351 W/m 8,9 C 11,2 C 3,6 km/h (1 Bft) 96,94 %
04.04.2017 13:00 11,8 C 83 % 1020,2 hPa 0,0 l/m 1,7 km/h (1 Bft) W-NW 0,00 h 0,178 mm 1,4 UV-I 318 W/m 9,0 C 11,8 C 4,4 km/h (1 Bft) 96,70 %
04.04.2017 14:00 12,6 C 76 % 1020,1 hPa 0,0 l/m 2,1 km/h (1 Bft) W-NW 0,83 h 0,152 mm 1,9 UV-I 480 W/m 8,5 C 12,6 C 4,8 km/h (1 Bft) 97,05 %
04.04.2017 15:00 12,8 C 72 % 1019,8 hPa 0,0 l/m 2,3 km/h (1 Bft) NW 0,20 h 0,254 mm 1,0 UV-I 258 W/m 7,9 C 12,8 C 5,5 km/h (1 Bft) 93,49 %
04.04.2017 16:00 12,7 C 75 % 1019,8 hPa 0,0 l/m 2,6 km/h (1 Bft) NW 0,00 h 0,127 mm 0,7 UV-I 200 W/m 8,3 C 12,7 C 7,3 km/h (2 Bft) 97,45 %
04.04.2017 17:00 11,8 C 76 % 1019,9 hPa 0,0 l/m 4,2 km/h (1 Bft) W 0,00 h 0,102 mm 0,0 UV-I 98 W/m 7,7 C 11,8 C 7,7 km/h (2 Bft) 95,81 %
04.04.2017 18:00 11,4 C 76 % 1020,1 hPa 0,0 l/m 7,1 km/h (2 Bft) W 0,17 h 0,051 mm 0,0 UV-I 75 W/m 7,4 C 10,7 C 11,8 km/h (2 Bft) 97,40 %
04.04.2017 19:00 10,7 C 84 % 1020,6 hPa 0,0 l/m 8,1 km/h (2 Bft) W-SW 0,10 h 0,050 mm 0,0 UV-I 19 W/m 8,0 C 9,5 C 12,4 km/h (3 Bft) 94,81 %
04.04.2017 20:00 9,7 C 89 % 1021,2 hPa 0,2 l/m 11,4 km/h (2 Bft) W-SW 0,00 h 0,026 mm 0,0 UV-I 0 W/m 7,9 C 6,5 C 17,3 km/h (3 Bft) 95,78 %
04.04.2017 21:00 8,9 C 89 % 1021,8 hPa 0,0 l/m 12,7 km/h (3 Bft) SW 0,00 h 0,025 mm 0,0 UV-I 0 W/m 7,2 C 5,0 C 18,8 km/h (3 Bft) 96,62 %
04.04.2017 22:00 8,6 C 88 % 1021,8 hPa 0,0 l/m 12,2 km/h (2 Bft) SW 0,00 h 0,026 mm 0,0 UV-I 0 W/m 6,7 C 4,9 C 18,8 km/h (3 Bft) 97,98 %
04.04.2017 23:00 8,4 C 89 % 1021,7 hPa 0,0 l/m 10,1 km/h (2 Bft) SW 0,00 h 0,025 mm 0,0 UV-I 0 W/m 6,6 C 5,8 C 15,8 km/h (3 Bft) 95,31 %
05.04.2017 00:00 7,9 C 91 % 1021,4 hPa 0,0 l/m 9,2 km/h (2 Bft) SW 0,00 h 0,000 mm 0,0 UV-I 0 W/m 6,6 C 5,8 C 13,8 km/h (3 Bft) 97,08 %
05.04.2017 01:00 7,8 C 92 % 1021,3 hPa 0,0 l/m 4,5 km/h (1 Bft) SW 0,00 h 0,000 mm 0,0 UV-I 0 W/m 6,6 C 7,8 C 7,8 km/h (2 Bft) 97,24 %
05.04.2017 02:00 7,8 C 92 % 1021,1 hPa 0,0 l/m 4,2 km/h (1 Bft) W-SW 0,00 h 0,000 mm 0,0 UV-I 0 W/m 6,6 C 7,8 C 6,6 km/h (2 Bft) 97,57 %
05.04.2017 03:00 7,7 C 92 % 1020,8 hPa 0,0 l/m 5,5 km/h (1 Bft) W-SW 0,00 h 0,000 mm 0,0 UV-I 0 W/m 6,5 C 7,5 C 8,5 km/h (2 Bft) 94,60 %
05.04.2017 04:00 7,5 C 92 % 1020,4 hPa 0,0 l/m 7,2 km/h (2 Bft) W-SW 0,00 h 0,000 mm 0,0 UV-I 0 W/m 6,3 C 6,6 C 11,2 km/h (2 Bft) 98,45 %
05.04.2017 05:00 7,4 C 92 % 1020,3 hPa 0,0 l/m 5,0 km/h (1 Bft) W-SW 0,00 h 0,000 mm 0,0 UV-I 0 W/m 6,2 C 7,4 C 7,3 km/h (2 Bft) 96,49 %
05.04.2017 06:00 7,0 C 92 % 1020,1 hPa 0,0 l/m 6,6 km/h (2 Bft) W-SW 0,03 h 0,000 mm 0,0 UV-I 9 W/m 5,9 C 6,4 C 10,2 km/h (2 Bft) 96,42 %
05.04.2017 07:00 7,3 C 93 % 1020,6 hPa 0,0 l/m 4,9 km/h (1 Bft) W-SW 0,00 h 0,000 mm 0,0 UV-I 45 W/m 6,3 C 7,3 C 7,7 km/h (2 Bft) 93,22 %
05.04.2017 08:00 8,1 C 92 % 1021,0 hPa 0,0 l/m 5,5 km/h (1 Bft) W-SW 0,00 h 0,025 mm 0,0 UV-I 98 W/m 6,8 C 8,0 C 9,1 km/h (2 Bft) 97,63 %
05.04.2017 09:00 8,6 C 89 % 1021,4 hPa 0,0 l/m 4,6 km/h (1 Bft) W 0,00 h 0,051 mm 0,4 UV-I 114 W/m 6,9 C 8,5 C 7,8 km/h (2 Bft) 97,15 %
05.04.2017 10:00 9,0 C 87 % 1021,4 hPa 0,0 l/m 6,5 km/h (2 Bft) SW 0,00 h 0,051 mm 0,6 UV-I 144 W/m 7,0 C 8,5 C 11,0 km/h (2 Bft) 97,00 %
05.04.2017 11:00 9,8 C 84 % 1021,2 hPa 0,0 l/m 7,7 km/h (2 Bft) W-SW 0,13 h 0,076 mm 1,2 UV-I 260 W/m 7,3 C 8,8 C 12,9 km/h (3 Bft) 94,82 %
05.04.2017 12:00 11,4 C 79 % 1020,8 hPa 0,0 l/m 10,3 km/h (2 Bft) W-SW 0,37 h 0,127 mm 1,8 UV-I 440 W/m 7,8 C 9,0 C 16,3 km/h (3 Bft) 96,88 %
05.04.2017 13:00 12,1 C 75 % 1020,3 hPa 0,0 l/m 10,9 km/h (2 Bft) SW 0,30 h 0,229 mm 1,6 UV-I 349 W/m 7,9 C 9,5 C 17,1 km/h (3 Bft) 96,14 %
05.04.2017 14:00 12,8 C 63 % 1019,7 hPa 0,2 l/m 10,1 km/h (2 Bft) W-SW 0,37 h 0,203 mm 1,6 UV-I 366 W/m 5,9 C 10,7 C 16,5 km/h (3 Bft) 96,42 %
05.04.2017 15:00 13,3 C 60 % 1019,1 hPa 0,0 l/m 12,8 km/h (3 Bft) SW 0,00 h 0,229 mm 1,2 UV-I 288 W/m 5,7 C 10,1 C 19,7 km/h (3 Bft) 95,30 %
05.04.2017 16:00 13,0 C 68 % 1018,5 hPa 0,0 l/m 15,8 km/h (3 Bft) W-SW 0,17 h 0,203 mm 0,8 UV-I 241 W/m 7,3 C 8,5 C 24,0 km/h (4 Bft) 94,07 %
05.04.2017 17:00 12,9 C 68 % 1018,0 hPa 0,0 l/m 17,2 km/h (3 Bft) W-SW 0,47 h 0,178 mm 0,6 UV-I 192 W/m 7,2 C 7,9 C 26,1 km/h (4 Bft) 95,97 %
05.04.2017 18:00 12,1 C 72 % 1017,7 hPa 0,0 l/m 17,8 km/h (3 Bft) W-SW 0,27 h 0,152 mm 0,0 UV-I 85 W/m 7,1 C 6,7 C 26,6 km/h (4 Bft) 95,96 %
05.04.2017 19:00 11,3 C 75 % 1017,9 hPa 0,0 l/m 16,0 km/h (3 Bft) SW 0,03 h 0,102 mm 0,0 UV-I 17 W/m 7,1 C 6,3 C 23,5 km/h (4 Bft) 97,00 %
05.04.2017 20:00 11,1 C 76 % 1018,2 hPa 0,0 l/m 17,1 km/h (3 Bft) SW 0,00 h 0,050 mm 0,0 UV-I 0 W/m 7,0 C 5,7 C 26,2 km/h (4 Bft) 93,93 %
05.04.2017 21:00 10,9 C 75 % 1018,1 hPa 0,0 l/m 18,0 km/h (3 Bft) SW 0,00 h 0,051 mm 0,0 UV-I 0 W/m 6,7 C 5,2 C 26,9 km/h (4 Bft) 96,68 %
05.04.2017 22:00 10,5 C 77 % 1018,0 hPa 0,0 l/m 14,0 km/h (3 Bft) SW 0,00 h 0,051 mm 0,0 UV-I 0 W/m 6,6 C 6,2 C 21,0 km/h (4 Bft) 96,90 %
05.04.2017 23:00 10,3 C 78 % 1017,9 hPa 0,0 l/m 12,1 km/h (2 Bft) W-SW 0,00 h 0,051 mm 0,0 UV-I 0 W/m 6,7 C 6,9 C 18,4 km/h (3 Bft) 97,89 %
06.04.2017 00:00 10,1 C 79 % 1017,6 hPa 0,0 l/m 13,4 km/h (3 Bft) W-SW 0,00 h 0,000 mm 0,0 UV-I 0 W/m 6,6 C 6,0 C 20,5 km/h (4 Bft) 95,02 %
06.04.2017 01:00 9,4 C 84 % 1017,4 hPa 0,0 l/m 13,0 km/h (3 Bft) SW 0,00 h 0,025 mm 0,0 UV-I 0 W/m 6,9 C 5,4 C 19,5 km/h (3 Bft) 97,16 %
06.04.2017 02:00 8,9 C 88 % 1017,1 hPa 0,0 l/m 13,2 km/h (3 Bft) W-SW 0,00 h 0,026 mm 0,0 UV-I 0 W/m 7,0 C 4,6 C 19,2 km/h (3 Bft) 96,99 %
06.04.2017 03:00 9,0 C 82 % 1017,2 hPa 0,0 l/m 7,0 km/h (2 Bft) W 0,00 h 0,025 mm 0,0 UV-I 0 W/m 6,0 C 8,1 C 12,2 km/h (3 Bft) 97,80 %
06.04.2017 04:00 8,0 C 84 % 1017,3 hPa 2,2 l/m 2,9 km/h (1 Bft) W 0,00 h 0,026 mm 0,0 UV-I 0 W/m 5,4 C 8,0 C 6,8 km/h (2 Bft) 95,52 %
06.04.2017 05:00 6,5 C 91 % 1017,6 hPa 2,0 l/m 1,1 km/h (1 Bft) W-SW 0,00 h 0,000 mm 0,0 UV-I 0 W/m 5,2 C 6,5 C 2,3 km/h (1 Bft) 97,11 %
06.04.2017 06:00 6,6 C 94 % 1018,0 hPa 0,0 l/m 5,6 km/h (1 Bft) W-SW 0,00 h 0,000 mm 0,0 UV-I 5 W/m 5,8 C 6,4 C 8,6 km/h (2 Bft) 96,38 %
06.04.2017 07:00 6,9 C 94 % 1018,7 hPa 0,0 l/m 8,6 km/h (2 Bft) W-SW 0,00 h 0,000 mm 0,0 UV-I 26 W/m 5,9 C 5,1 C 13,5 km/h (3 Bft) 95,88 %
06.04.2017 08:00 7,1 C 88 % 1019,2 hPa 0,0 l/m 10,6 km/h (2 Bft) W-SW 0,03 h 0,025 mm 0,0 UV-I 121 W/m 5,3 C 4,1 C 17,5 km/h (3 Bft) 94,58 %
06.04.2017 09:00 7,3 C 76 % 1019,9 hPa 0,0 l/m 14,4 km/h (3 Bft) W 0,00 h 0,076 mm 0,8 UV-I 186 W/m 3,4 C 2,3 C 24,9 km/h (4 Bft) 96,79 %
06.04.2017 10:00 7,2 C 71 % 1020,7 hPa 0,0 l/m 14,2 km/h (3 Bft) W 0,00 h 0,102 mm 1,1 UV-I 214 W/m 2,3 C 2,2 C 23,8 km/h (4 Bft) 97,75 %
06.04.2017 11:00 7,8 C 65 % 1021,3 hPa 0,0 l/m 16,2 km/h (3 Bft) W 0,30 h 0,152 mm 1,5 UV-I 321 W/m 1,7 C 2,0 C 27,2 km/h (4 Bft) 96,76 %
06.04.2017 12:00 8,0 C 64 % 1021,6 hPa 0,0 l/m 14,5 km/h (3 Bft) W-SW 0,13 h 0,203 mm 1,4 UV-I 269 W/m 1,5 C 3,2 C 24,4 km/h (4 Bft) 94,54 %
06.04.2017 13:00 7,6 C 63 % 1022,0 hPa 0,0 l/m 13,7 km/h (3 Bft) W 0,00 h 0,178 mm 1,3 UV-I 250 W/m 1,0 C 3,1 C 23,0 km/h (4 Bft) 96,49 %
06.04.2017 14:00 9,4 C 56 % 1021,9 hPa 0,2 l/m 17,2 km/h (3 Bft) W-SW 0,80 h 0,178 mm 2,6 UV-I 731 W/m 1,0 C 3,7 C 27,7 km/h (4 Bft) 96,19 %
06.04.2017 15:00 9,8 C 52 % 1021,7 hPa 0,0 l/m 17,8 km/h (3 Bft) W-SW 0,90 h 0,381 mm 2,0 UV-I 626 W/m 0,5 C 4,0 C 29,0 km/h (5 Bft) 98,37 %
06.04.2017 16:00 10,0 C 51 % 1021,6 hPa 0,0 l/m 18,7 km/h (3 Bft) W 0,97 h 0,381 mm 1,2 UV-I 466 W/m 0,3 C 3,8 C 30,3 km/h (5 Bft) 96,71 %
06.04.2017 17:00 9,8 C 50 % 1021,6 hPa 0,0 l/m 18,1 km/h (3 Bft) W-SW 0,97 h 0,305 mm 0,7 UV-I 309 W/m -0,2 C 3,8 C 29,2 km/h (5 Bft) 97,73 %
06.04.2017 18:00 8,8 C 51 % 1021,9 hPa 0,0 l/m 17,3 km/h (3 Bft) W 0,83 h 0,228 mm 0,0 UV-I 121 W/m -0,8 C 2,8 C 27,9 km/h (4 Bft) 95,22 %
06.04.2017 19:00 7,5 C 62 % 1022,2 hPa 0,0 l/m 14,3 km/h (3 Bft) W-SW 0,13 h 0,127 mm 0,0 UV-I 17 W/m 0,6 C 2,6 C 20,8 km/h (4 Bft) 95,27 %
06.04.2017 20:00 6,3 C 73 % 1022,7 hPa 0,0 l/m 11,4 km/h (2 Bft) SW 0,00 h 0,051 mm 0,0 UV-I 0 W/m 1,8 C 2,7 C 17,5 km/h (3 Bft) 96,23 %
06.04.2017 21:00 5,7 C 76 % 1023,3 hPa 0,0 l/m 14,7 km/h (3 Bft) SW 0,00 h 0,026 mm 0,0 UV-I 0 W/m 1,8 C 0,2 C 21,6 km/h (4 Bft) 97,83 %
06.04.2017 22:00 5,8 C 75 % 1023,5 hPa 0,0 l/m 15,4 km/h (3 Bft) SW 0,00 h 0,025 mm 0,0 UV-I 0 W/m 1,8 C -0,1 C 22,1 km/h (4 Bft) 95,13 %
06.04.2017 23:00 5,8 C 73 % 1023,6 hPa 0,0 l/m 13,8 km/h (3 Bft) W-SW 0,00 h 0,025 mm 0,0 UV-I 0 W/m 1,3 C 0,7 C 21,3 km/h (4 Bft) 97,04 %
07.04.2017 00:00 5,7 C 71 % 1023,2 hPa 0,0 l/m 13,9 km/h (3 Bft) W-SW 0,00 h 0,000 mm 0,0 UV-I 0 W/m 0,9 C 0,6 C 21,9 km/h (4 Bft) 96,05 %
07.04.2017 01:00 5,7 C 72 % 1022,7 hPa 0,0 l/m 14,8 km/h (3 Bft) W-SW 0,00 h 0,051 mm 0,0 UV-I 0 W/m 1,0 C 0,1 C 22,2 km/h (4 Bft) 98,30 %
07.04.2017 02:00 5,7 C 72 % 1022,0 hPa 0,0 l/m 14,3 km/h (3 Bft) SW 0,00 h 0,051 mm 0,0 UV-I 0 W/m 1,1 C 0,3 C 21,5 km/h (4 Bft) 95,50 %
07.04.2017 03:00 5,8 C 70 % 1021,5 hPa 0,0 l/m 15,3 km/h (3 Bft) SW 0,00 h 0,050 mm 0,0 UV-I 0 W/m 0,8 C -0,0 C 22,4 km/h (4 Bft) 97,70 %
07.04.2017 04:00 6,0 C 70 % 1021,2 hPa 0,0 l/m 17,7 km/h (3 Bft) W-SW 0,00 h 0,051 mm 0,0 UV-I 0 W/m 0,9 C -1,0 C 25,9 km/h (4 Bft) 96,63 %
07.04.2017 05:00 6,1 C 69 % 1021,1 hPa 0,0 l/m 17,8 km/h (3 Bft) SW 0,00 h 0,051 mm 0,0 UV-I 0 W/m 0,9 C -0,8 C 25,5 km/h (4 Bft) 97,57 %
07.04.2017 06:00 6,3 C 68 % 1020,8 hPa 0,0 l/m 18,8 km/h (3 Bft) W-SW 0,00 h 0,051 mm 0,0 UV-I 6 W/m 0,8 C -1,0 C 26,9 km/h (4 Bft) 94,69 %
07.04.2017 07:00 6,6 C 67 % 1020,9 hPa 0,0 l/m 17,5 km/h (3 Bft) W-SW 0,00 h 0,051 mm 0,0 UV-I 27 W/m 1,0 C -0,0 C 25,0 km/h (4 Bft) 95,74 %
07.04.2017 08:00 7,0 C 68 % 1021,1 hPa 0,0 l/m 15,3 km/h (3 Bft) W-SW 0,00 h 0,076 mm 0,0 UV-I 68 W/m 1,6 C 1,5 C 22,2 km/h (4 Bft) 97,43 %
07.04.2017 09:00 7,4 C 68 % 1021,1 hPa 0,0 l/m 19,2 km/h (3 Bft) W-SW 0,00 h 0,076 mm 0,4 UV-I 97 W/m 1,8 C 0,3 C 29,2 km/h (5 Bft) 97,02 %
07.04.2017 10:00 7,7 C 68 % 1021,1 hPa 0,0 l/m 19,4 km/h (3 Bft) W-SW 0,00 h 0,102 mm 0,5 UV-I 112 W/m 2,1 C 0,6 C 28,3 km/h (4 Bft) 96,58 %
07.04.2017 11:00 8,3 C 66 % 1020,9 hPa 0,0 l/m 19,6 km/h (3 Bft) W-SW 0,00 h 0,101 mm 0,8 UV-I 164 W/m 2,4 C 1,4 C 30,1 km/h (5 Bft) 95,42 %
07.04.2017 12:00 8,6 C 67 % 1020,9 hPa 0,0 l/m 23,5 km/h (4 Bft) W-SW 0,00 h 0,127 mm 1,2 UV-I 230 W/m 2,8 C 0,5 C 36,2 km/h (5 Bft) 97,11 %
07.04.2017 13:00 7,7 C 76 % 1020,8 hPa 0,4 l/m 21,1 km/h (4 Bft) W-SW 0,00 h 0,178 mm 0,9 UV-I 159 W/m 3,8 C -0,0 C 31,1 km/h (5 Bft) 97,95 %
07.04.2017 14:00 7,5 C 82 % 1020,7 hPa 0,8 l/m 15,7 km/h (3 Bft) W-SW 0,00 h 0,127 mm 0,9 UV-I 162 W/m 4,7 C 1,9 C 23,4 km/h (4 Bft) 95,19 %
07.04.2017 15:00 8,6 C 79 % 1020,0 hPa 0,2 l/m 15,1 km/h (3 Bft) W-SW 0,00 h 0,102 mm 0,8 UV-I 164 W/m 5,2 C 3,4 C 22,0 km/h (4 Bft) 95,92 %
07.04.2017 16:00 9,0 C 78 % 1019,6 hPa 0,0 l/m 9,4 km/h (2 Bft) SW 0,00 h 0,101 mm 0,2 UV-I 99 W/m 5,4 C 6,8 C 15,0 km/h (3 Bft) 96,34 %
07.04.2017 17:00 8,7 C 80 % 1019,3 hPa 0,0 l/m 7,8 km/h (2 Bft) S-SW 0,00 h 0,076 mm 0,0 UV-I 55 W/m 5,5 C 7,6 C 12,4 km/h (3 Bft) 98,59 %
07.04.2017 18:00 9,6 C 77 % 1019,3 hPa 0,0 l/m 10,7 km/h (2 Bft) SW 0,00 h 0,051 mm 0,0 UV-I 42 W/m 5,7 C 6,8 C 16,8 km/h (3 Bft) 97,69 %
07.04.2017 19:00 9,3 C 76 % 1019,4 hPa 0,0 l/m 9,8 km/h (2 Bft) SW 0,00 h 0,051 mm 0,0 UV-I 12 W/m 5,2 C 7,0 C 15,0 km/h (3 Bft) 94,59 %
07.04.2017 20:00 8,9 C 80 % 1020,5 hPa 0,4 l/m 8,3 km/h (2 Bft) W-SW 0,00 h 0,025 mm 0,0 UV-I 0 W/m 5,6 C 7,3 C 12,6 km/h (3 Bft) 95,20 %
07.04.2017 21:00 8,5 C 86 % 1021,3 hPa 2,4 l/m 9,2 km/h (2 Bft) W-SW 0,00 h 0,026 mm 0,0 UV-I 0 W/m 6,4 C 6,5 C 14,9 km/h (3 Bft) 96,52 %
07.04.2017 22:00 8,2 C 89 % 1021,5 hPa 0,4 l/m 11,4 km/h (2 Bft) W-SW 0,00 h 0,025 mm 0,0 UV-I 0 W/m 6,6 C 4,8 C 16,5 km/h (3 Bft) 98,35 %
07.04.2017 23:00 8,2 C 88 % 1021,6 hPa 0,0 l/m 13,8 km/h (3 Bft) W-SW 0,00 h 0,026 mm 0,0 UV-I 0 W/m 6,3 C 3,6 C 19,5 km/h (3 Bft) 95,08 %
08.04.2017 00:00 8,6 C 84 % 1021,9 hPa 0,0 l/m 11,5 km/h (2 Bft) W-SW 0,00 h 0,000 mm 0,0 UV-I 0 W/m 6,0 C 5,2 C 17,2 km/h (3 Bft) 93,35 %
08.04.2017 01:00 8,5 C 85 % 1022,2 hPa 0,0 l/m 12,3 km/h (3 Bft) W-SW 0,00 h 0,025 mm 0,0 UV-I 0 W/m 6,1 C 4,7 C 17,6 km/h (3 Bft) 96,35 %
08.04.2017 02:00 8,4 C 86 % 1022,2 hPa 0,0 l/m 14,1 km/h (3 Bft) W-SW 0,00 h 0,026 mm 0,0 UV-I 0 W/m 6,3 C 3,6 C 20,0 km/h (4 Bft) 98,56 %
08.04.2017 03:00 8,2 C 88 % 1022,2 hPa 0,0 l/m 12,1 km/h (2 Bft) W-SW 0,00 h 0,025 mm 0,0 UV-I 0 W/m 6,3 C 4,4 C 17,2 km/h (3 Bft) 96,27 %
08.04.2017 04:00 8,0 C 87 % 1022,2 hPa 0,0 l/m 12,6 km/h (3 Bft) W-SW 0,00 h 0,026 mm 0,0 UV-I 0 W/m 5,9 C 3,9 C 18,6 km/h (3 Bft) 97,34 %
08.04.2017 05:00 7,9 C 87 % 1022,5 hPa 0,0 l/m 10,8 km/h (2 Bft) W-SW 0,00 h 0,025 mm 0,0 UV-I 0 W/m 5,8 C 4,8 C 16,2 km/h (3 Bft) 97,31 %
08.04.2017 06:00 7,9 C 87 % 1023,0 hPa 0,0 l/m 9,5 km/h (2 Bft) W-SW 0,00 h 0,025 mm 0,0 UV-I 5 W/m 5,8 C 5,7 C 14,3 km/h (3 Bft) 98,25 %
08.04.2017 07:00 7,9 C 87 % 1023,6 hPa 0,0 l/m 8,2 km/h (2 Bft) W-SW 0,00 h 0,026 mm 0,0 UV-I 14 W/m 5,9 C 6,5 C 12,4 km/h (3 Bft) 96,36 %
08.04.2017 08:00 8,1 C 88 % 1023,9 hPa 0,0 l/m 8,8 km/h (2 Bft) W-SW 0,00 h 0,025 mm 0,0 UV-I 48 W/m 6,2 C 6,3 C 13,7 km/h (3 Bft) 95,15 %
08.04.2017 09:00 8,5 C 88 % 1024,2 hPa 0,0 l/m 9,5 km/h (2 Bft) W-SW 0,00 h 0,026 mm 0,5 UV-I 118 W/m 6,6 C 6,3 C 15,0 km/h (3 Bft) 96,90 %
08.04.2017 10:00 9,6 C 84 % 1024,4 hPa 0,0 l/m 8,4 km/h (2 Bft) W-SW 0,03 h 0,076 mm 1,2 UV-I 242 W/m 6,9 C 8,1 C 13,3 km/h (3 Bft) 97,66 %
08.04.2017 11:00 11,2 C 79 % 1024,4 hPa 0,0 l/m 9,2 km/h (2 Bft) W 0,77 h 0,127 mm 2,5 UV-I 497 W/m 7,6 C 9,4 C 14,9 km/h (3 Bft) 97,44 %
08.04.2017 12:00 12,7 C 75 % 1024,1 hPa 0,0 l/m 7,0 km/h (2 Bft) W 1,00 h 0,254 mm 3,2 UV-I 572 W/m 8,3 C 11,9 C 13,2 km/h (3 Bft) 97,87 %
08.04.2017 13:00 14,2 C 71 % 1023,5 hPa 0,0 l/m 3,6 km/h (1 Bft) W-NW 1,00 h 0,305 mm 4,0 UV-I 768 W/m 9,0 C 14,2 C 8,7 km/h (2 Bft) 95,95 %
08.04.2017 14:00 14,8 C 65 % 1023,1 hPa 0,0 l/m 2,7 km/h (1 Bft) NW 0,77 h 0,406 mm 3,2 UV-I 625 W/m 8,4 C 14,8 C 6,1 km/h (2 Bft) 97,90 %
08.04.2017 15:00 15,6 C 62 % 1022,7 hPa 0,0 l/m 3,0 km/h (1 Bft) SW 0,90 h 0,330 mm 2,2 UV-I 537 W/m 8,3 C 15,5 C 6,5 km/h (2 Bft) 98,30 %
08.04.2017 16:00 15,9 C 59 % 1022,2 hPa 0,0 l/m 7,1 km/h (2 Bft) SW 0,93 h 0,305 mm 1,3 UV-I 366 W/m 8,0 C 15,4 C 11,1 km/h (2 Bft) 99,37 %
08.04.2017 17:00 16,2 C 59 % 1022,0 hPa 0,0 l/m 5,4 km/h (1 Bft) S-SW 1,00 h 0,229 mm 0,7 UV-I 333 W/m 8,3 C 16,1 C 9,4 km/h (2 Bft) 97,97 %
08.04.2017 18:00 15,7 C 62 % 1021,8 hPa 0,0 l/m 1,4 km/h (1 Bft) NO 0,77 h 0,203 mm 0,0 UV-I 139 W/m 8,4 C 15,7 C 3,5 km/h (1 Bft) 99,50 %
08.04.2017 19:00 13,7 C 73 % 1021,8 hPa 0,0 l/m 6,4 km/h (2 Bft) O-NO 0,27 h 0,076 mm 0,0 UV-I 23 W/m 8,8 C 13,1 C 9,9 km/h (2 Bft) 96,60 %
08.04.2017 20:00 12,0 C 77 % 1022,2 hPa 0,0 l/m 7,3 km/h (2 Bft) O 0,00 h 0,025 mm 0,0 UV-I 0 W/m 8,2 C 11,4 C 12,0 km/h (2 Bft) 98,08 %
08.04.2017 21:00 11,3 C 78 % 1022,6 hPa 0,0 l/m 6,3 km/h (2 Bft) O-NO 0,00 h 0,026 mm 0,0 UV-I 0 W/m 7,7 C 11,0 C 9,8 km/h (2 Bft) 97,94 %
08.04.2017 22:00 10,5 C 82 % 1022,9 hPa 0,0 l/m 8,1 km/h (2 Bft) O-NO 0,00 h 0,025 mm 0,0 UV-I 0 W/m 7,5 C 9,3 C 11,8 km/h (2 Bft) 99,66 %
08.04.2017 23:00 9,5 C 86 % 1022,9 hPa 0,0 l/m 7,0 km/h (2 Bft) O-NO 0,00 h 0,026 mm 0,0 UV-I 0 W/m 7,3 C 9,0 C 10,0 km/h (2 Bft) 96,93 %
09.04.2017 00:00 8,6 C 89 % 1023,2 hPa 0,0 l/m 6,1 km/h (2 Bft) O-NO 0,00 h 0,000 mm 0,0 UV-I 0 W/m 7,0 C 8,5 C 8,8 km/h (2 Bft) 97,93 %
09.04.2017 01:00 8,0 C 91 % 1023,5 hPa 0,0 l/m 3,6 km/h (1 Bft) O-NO 0,00 h 0,000 mm 0,0 UV-I 0 W/m 6,7 C 8,0 C 5,9 km/h (2 Bft) 98,27 %
09.04.2017 02:00 7,4 C 93 % 1023,5 hPa 0,0 l/m 6,0 km/h (2 Bft) O-NO 0,00 h 0,000 mm 0,0 UV-I 0 W/m 6,4 C 7,2 C 9,2 km/h (2 Bft) 99,34 %
09.04.2017 03:00 6,8 C 94 % 1023,5 hPa 0,0 l/m 3,5 km/h (1 Bft) O-NO 0,00 h 0,000 mm 0,0 UV-I 0 W/m 5,9 C 6,8 C 5,3 km/h (1 Bft) 96,72 %
09.04.2017 04:00 5,3 C 95 % 1023,5 hPa 0,0 l/m 0,1 km/h (0 Bft) N 0,00 h 0,000 mm 0,0 UV-I 0 W/m 4,6 C 5,3 C 0,5 km/h (0 Bft) 98,08 %
09.04.2017 05:00 4,5 C 96 % 1023,5 hPa 0,0 l/m 0,3 km/h (0 Bft) O-NO 0,00 h 0,000 mm 0,0 UV-I 0 W/m 3,9 C 4,5 C 0,5 km/h (0 Bft) 98,12 %
09.04.2017 06:00 3,7 C 96 % 1023,8 hPa 0,0 l/m 0,1 km/h (0 Bft) O-NO 0,40 h 0,000 mm 0,0 UV-I 19 W/m 3,1 C 3,7 C 0,5 km/h (0 Bft) 97,58 %
09.04.2017 07:00 3,8 C 97 % 1024,4 hPa 0,0 l/m 0,8 km/h (0 Bft) O 1,00 h 0,000 mm 0,0 UV-I 108 W/m 3,4 C 3,8 C 1,3 km/h (1 Bft) 96,02 %
09.04.2017 08:00 6,3 C 97 % 1024,8 hPa 0,0 l/m 2,0 km/h (1 Bft) O-NO 1,00 h 0,051 mm 0,7 UV-I 290 W/m 5,9 C 6,3 C 3,6 km/h (1 Bft) 95,25 %
09.04.2017 09:00 9,5 C 89 % 1025,1 hPa 0,0 l/m 2,3 km/h (1 Bft) NO 1,00 h 0,127 mm 1,3 UV-I 477 W/m 7,7 C 9,5 C 4,3 km/h (1 Bft) 96,57 %
09.04.2017 10:00 11,7 C 80 % 1025,1 hPa 0,0 l/m 5,5 km/h (1 Bft) NO 1,00 h 0,228 mm 2,3 UV-I 620 W/m 8,4 C 11,4 C 9,4 km/h (2 Bft) 94,87 %
09.04.2017 11:00 13,6 C 74 % 1025,0 hPa 0,0 l/m 6,1 km/h (2 Bft) O-NO 1,00 h 0,305 mm 3,2 UV-I 723 W/m 9,1 C 13,3 C 10,9 km/h (2 Bft) 95,79 %
09.04.2017 12:00 15,8 C 67 % 1024,7 hPa 0,0 l/m 8,9 km/h (2 Bft) NO 1,00 h 0,381 mm 3,8 UV-I 780 W/m 9,6 C 14,5 C 14,5 km/h (3 Bft) 95,61 %
09.04.2017 13:00 17,3 C 54 % 1024,3 hPa 0,0 l/m 11,9 km/h (2 Bft) NO 1,00 h 0,457 mm 3,9 UV-I 786 W/m 7,8 C 15,0 C 18,2 km/h (3 Bft) 98,01 %
09.04.2017 14:00 17,9 C 51 % 1023,8 hPa 0,0 l/m 8,6 km/h (2 Bft) NO 1,00 h 0,508 mm 3,4 UV-I 735 W/m 7,5 C 16,7 C 14,5 km/h (3 Bft) 98,96 %
09.04.2017 15:00 18,4 C 48 % 1023,2 hPa 0,0 l/m 4,8 km/h (1 Bft) O-NO 1,00 h 0,458 mm 2,6 UV-I 634 W/m 7,2 C 18,3 C 9,5 km/h (2 Bft) 97,04 %
09.04.2017 16:00 18,7 C 45 % 1022,7 hPa 0,0 l/m 4,0 km/h (1 Bft) NO 1,00 h 0,381 mm 1,6 UV-I 493 W/m 6,5 C 18,7 C 7,3 km/h (2 Bft) 98,60 %
09.04.2017 17:00 18,4 C 44 % 1022,3 hPa 0,0 l/m 4,1 km/h (1 Bft) NO 1,00 h 0,304 mm 0,8 UV-I 320 W/m 6,0 C 18,4 C 7,5 km/h (2 Bft) 97,15 %
09.04.2017 18:00 17,8 C 45 % 1021,9 hPa 0,0 l/m 4,2 km/h (1 Bft) O-NO 1,00 h 0,204 mm 0,0 UV-I 149 W/m 5,7 C 17,8 C 6,3 km/h (2 Bft) 95,41 %
09.04.2017 19:00 15,5 C 54 % 1021,8 hPa 0,0 l/m 3,6 km/h (1 Bft) O-NO 0,60 h 0,127 mm 0,0 UV-I 27 W/m 6,1 C 15,5 C 5,2 km/h (1 Bft) 93,64 %
09.04.2017 20:00 12,3 C 68 % 1021,8 hPa 0,0 l/m 2,9 km/h (1 Bft) O-NO 0,00 h 0,050 mm 0,0 UV-I 3 W/m 6,6 C 12,3 C 4,4 km/h (1 Bft) 96,26 %
09.04.2017 21:00 10,9 C 71 % 1021,9 hPa 0,0 l/m 1,7 km/h (1 Bft) O-NO 0,00 h 0,026 mm 0,0 UV-I 0 W/m 5,9 C 10,9 C 3,2 km/h (1 Bft) 95,73 %
09.04.2017 22:00 10,3 C 73 % 1021,8 hPa 0,0 l/m 2,9 km/h (1 Bft) O-NO 0,00 h 0,000 mm 0,0 UV-I 0 W/m 5,7 C 10,3 C 5,0 km/h (1 Bft) 95,11 %
09.04.2017 23:00 8,9 C 79 % 1021,8 hPa 0,0 l/m 2,7 km/h (1 Bft) S-SW 0,00 h 0,025 mm 0,0 UV-I 0 W/m 5,4 C 8,9 C 3,9 km/h (1 Bft) 96,52 %
Min-Datum _ 09.04.17 09.04.17 03.04.17 - 03.04.17 - - - - - 06.04.17 07.04.17 03.04.17 08.04.17
_ Min-Zeit 06:34 18:08 00:00 - 09:36 - - - - - 18:38 04:00 09:36 00:02
Minimum _ 3,4 C 39 % 1016,8 hPa - 0,0 km/h (0 Bft) - - - - - -1,6 C -3,1 C 0,0 km/h (0 Bft) 11,11 %
Max-Datum _ 09.04.17 09.04.17 09.04.17 03.04.17 07.04.17 - 03.04.17 09.04.17 08.04.17 06.04.17 03.04.17 09.04.17 07.04.17 03.04.17
_ Max-Zeit 16:36 08:28 09:32 23:08 12:04 - 16:55 14:00 13:26 14:14 15:06 16:36 12:12 01:48
Maximum _ 18,9 C 98 % 1025,2 hPa 6,2 l/m 34,1 km/h
W-SW (5 Bft)
- 0,05 h 0,508 mm 4,2 UV-I 949 W/m 11,0 C 18,9 C 54,7 km/h
W-SW (7 Bft)
100,00 %
Durchschnitt _ 10,0 C 78 % 1021,0 hPa #25,0 l/m 8,1 km/h (2 Bft) W-SW #33:54 h #15,418 mm 1,5 UV-I 240 W/m 6,2 C 8,0 C 12,9 km/h (3 Bft) 96,66 %